AAL1454 KDCA-KTPA
Flight info
| Callsign | AAL1454 |
|---|---|
| Flight time | 1h 54m |
| Altitude | 38000 |
| Route | JDUBB4 RRSIN GSO Q75 TEUFL BAAMF DADES2 |
| Aircraft | A20N/M-SDE2E3FGHIRWXY/LB1 |
Departure
| Time | 2026-04-23 23:45 |
|---|---|
| Airport | Ronald Reagan Washington National Airport (KDCA) |
Arrival
| Time | 2026-04-24 01:40 |
|---|---|
| Airport | Tampa International Airport (KTPA) |
| Time | Latitude | Longitude | Altitude | Speed | Heading |
|---|---|---|---|---|---|
| 2026-04-23 23:16 | 38.85565 | -77.04222 | 26 ft | 0 kts | 338° |
| 2026-04-23 23:34 | 38.85561 | -77.04220 | 26 ft | 2 kts | 338° |
| 2026-04-23 23:34 | 38.85547 | -77.04212 | 26 ft | 2 kts | 337° |
| 2026-04-23 23:35 | 38.85533 | -77.04205 | 26 ft | 2 kts | 338° |
| 2026-04-23 23:35 | 38.85521 | -77.04198 | 26 ft | 1 kts | 336° |
| 2026-04-23 23:35 | 38.85511 | -77.04198 | 26 ft | 1 kts | 40° |
| 2026-04-23 23:35 | 38.85507 | -77.04205 | 26 ft | 0 kts | 79° |
| 2026-04-23 23:36 | 38.85506 | -77.04213 | 26 ft | 0 kts | 73° |
| 2026-04-23 23:39 | 38.85506 | -77.04211 | 26 ft | 0 kts | 73° |
| 2026-04-23 23:40 | 38.85510 | -77.04195 | 25 ft | 2 kts | 72° |
| 2026-04-23 23:40 | 38.85519 | -77.04163 | 26 ft | 4 kts | 71° |
| 2026-04-23 23:40 | 38.85532 | -77.04113 | 26 ft | 6 kts | 71° |
| 2026-04-23 23:40 | 38.85537 | -77.04047 | 26 ft | 8 kts | 121° |
| 2026-04-23 23:41 | 38.85480 | -77.04009 | 26 ft | 10 kts | 173° |
| 2026-04-23 23:41 | 38.85397 | -77.03999 | 26 ft | 12 kts | 174° |
| 2026-04-23 23:41 | 38.85300 | -77.03986 | 26 ft | 14 kts | 174° |
| 2026-04-23 23:41 | 38.85194 | -77.03981 | 26 ft | 15 kts | 178° |
| 2026-04-23 23:42 | 38.85079 | -77.03968 | 26 ft | 17 kts | 175° |
| 2026-04-23 23:42 | 38.84952 | -77.03957 | 25 ft | 18 kts | 175° |
| 2026-04-23 23:42 | 38.84820 | -77.03945 | 26 ft | 19 kts | 176° |
| 2026-04-23 23:42 | 38.84723 | -77.03885 | 26 ft | 15 kts | 139° |
| 2026-04-23 23:43 | 38.84616 | -77.03860 | 26 ft | 15 kts | 175° |
| 2026-04-23 23:43 | 38.84501 | -77.03853 | 26 ft | 16 kts | 176° |
| 2026-04-23 23:43 | 38.84387 | -77.03841 | 26 ft | 16 kts | 175° |
| 2026-04-23 23:43 | 38.84271 | -77.03828 | 26 ft | 13 kts | 172° |
| 2026-04-23 23:44 | 38.84208 | -77.03770 | 26 ft | 10 kts | 130° |
| 2026-04-23 23:44 | 38.84197 | -77.03687 | 26 ft | 9 kts | 38° |
| 2026-04-23 23:44 | 38.84277 | -77.03689 | 26 ft | 20 kts | 355° |
| 2026-04-23 23:44 | 38.84733 | -77.03735 | 26 ft | 108 kts | 356° |
| 2026-04-23 23:45 | 38.85732 | -77.03848 | 82 ft | 170 kts | 353° |
| 2026-04-23 23:45 | 38.86902 | -77.04044 | 762 ft | 178 kts | 351° |
| 2026-04-23 23:45 | 38.87747 | -77.04227 | 1328 ft | 184 kts | 345° |
| 2026-04-23 23:45 | 38.88866 | -77.05043 | 2202 ft | 191 kts | 314° |
| 2026-04-23 23:46 | 38.89645 | -77.06379 | 3014 ft | 189 kts | 307° |
| 2026-04-23 23:46 | 38.90429 | -77.07775 | 3573 ft | 198 kts | 306° |
| 2026-04-23 23:46 | 38.91142 | -77.09360 | 4028 ft | 215 kts | 300° |
| 2026-04-23 23:46 | 38.92104 | -77.10983 | 4425 ft | 237 kts | 319° |
| 2026-04-23 23:47 | 38.93193 | -77.11979 | 4885 ft | 248 kts | 327° |
| 2026-04-23 23:47 | 38.94202 | -77.12773 | 5438 ft | 251 kts | 328° |
| 2026-04-23 23:47 | 38.95678 | -77.13953 | 6340 ft | 250 kts | 321° |
| 2026-04-23 23:47 | 38.96708 | -77.15717 | 7189 ft | 252 kts | 291° |
| 2026-04-23 23:48 | 38.96942 | -77.17943 | 8019 ft | 257 kts | 266° |
| 2026-04-23 23:48 | 38.96366 | -77.20110 | 8833 ft | 266 kts | 241° |
| 2026-04-23 23:48 | 38.95022 | -77.21787 | 9613 ft | 278 kts | 215° |
| 2026-04-23 23:48 | 38.93290 | -77.22964 | 10347 ft | 284 kts | 212° |
| 2026-04-23 23:49 | 38.89561 | -77.25437 | 11279 ft | 314 kts | 212° |
| 2026-04-23 23:49 | 38.87632 | -77.26719 | 11958 ft | 318 kts | 212° |
| 2026-04-23 23:49 | 38.85627 | -77.28056 | 12658 ft | 323 kts | 212° |
| 2026-04-23 23:50 | 38.83643 | -77.29380 | 13309 ft | 327 kts | 212° |
| 2026-04-23 23:50 | 38.81599 | -77.30746 | 13972 ft | 331 kts | 212° |
| 2026-04-23 23:50 | 38.79541 | -77.32120 | 14642 ft | 334 kts | 212° |
| 2026-04-23 23:50 | 38.77489 | -77.33489 | 15288 ft | 337 kts | 212° |
| 2026-04-23 23:51 | 38.75372 | -77.34905 | 15939 ft | 340 kts | 211° |
| 2026-04-23 23:51 | 38.73255 | -77.36316 | 16577 ft | 343 kts | 212° |
| 2026-04-23 23:51 | 38.71139 | -77.37728 | 17185 ft | 346 kts | 211° |
| 2026-04-23 23:51 | 38.68972 | -77.39175 | 17799 ft | 348 kts | 211° |
| 2026-04-23 23:52 | 38.66788 | -77.40630 | 18422 ft | 350 kts | 211° |
| 2026-04-23 23:52 | 38.64641 | -77.42055 | 19005 ft | 353 kts | 212° |
| 2026-04-23 23:52 | 38.62437 | -77.43523 | 19576 ft | 356 kts | 211° |
| 2026-04-23 23:52 | 38.60234 | -77.44991 | 20143 ft | 358 kts | 211° |
| 2026-04-23 23:53 | 38.58021 | -77.46461 | 20704 ft | 360 kts | 211° |
| 2026-04-23 23:53 | 38.55758 | -77.47961 | 21241 ft | 363 kts | 211° |
| 2026-04-23 23:53 | 38.53525 | -77.49445 | 21768 ft | 366 kts | 211° |
| 2026-04-23 23:53 | 38.51237 | -77.50962 | 22304 ft | 368 kts | 211° |
| 2026-04-23 23:54 | 38.48941 | -77.52483 | 22816 ft | 370 kts | 211° |
| 2026-04-23 23:54 | 38.46646 | -77.54002 | 23319 ft | 373 kts | 211° |
| 2026-04-23 23:54 | 38.44307 | -77.55548 | 23820 ft | 375 kts | 211° |
| 2026-04-23 23:54 | 38.41971 | -77.57093 | 24297 ft | 378 kts | 211° |
| 2026-04-23 23:55 | 38.39618 | -77.58648 | 24768 ft | 381 kts | 211° |
| 2026-04-23 23:55 | 38.37264 | -77.60199 | 25208 ft | 383 kts | 211° |
| 2026-04-23 23:55 | 38.34858 | -77.61785 | 25632 ft | 386 kts | 211° |
| 2026-04-23 23:55 | 38.32469 | -77.63376 | 26043 ft | 388 kts | 213° |
| 2026-04-23 23:56 | 38.30142 | -77.65162 | 26456 ft | 389 kts | 217° |
| 2026-04-23 23:56 | 38.27920 | -77.67211 | 26860 ft | 389 kts | 222° |
| 2026-04-23 23:56 | 38.25836 | -77.69411 | 27255 ft | 391 kts | 224° |
| 2026-04-23 23:56 | 38.23733 | -77.71677 | 27639 ft | 393 kts | 224° |
| 2026-04-23 23:57 | 38.21634 | -77.73940 | 28020 ft | 396 kts | 224° |
| 2026-04-23 23:57 | 38.19523 | -77.76211 | 28376 ft | 398 kts | 224° |
| 2026-04-23 23:57 | 38.17369 | -77.78522 | 28737 ft | 400 kts | 224° |
| 2026-04-23 23:57 | 38.15222 | -77.80821 | 29073 ft | 403 kts | 223° |
| 2026-04-23 23:58 | 38.13087 | -77.83103 | 29417 ft | 405 kts | 223° |
| 2026-04-23 23:58 | 38.10901 | -77.85433 | 29774 ft | 407 kts | 224° |
| 2026-04-23 23:58 | 38.08730 | -77.87747 | 30088 ft | 409 kts | 224° |
| 2026-04-23 23:58 | 38.06523 | -77.90099 | 30375 ft | 412 kts | 224° |
| 2026-04-23 23:59 | 38.04325 | -77.92441 | 30650 ft | 414 kts | 224° |
| 2026-04-23 23:59 | 38.02123 | -77.94785 | 30936 ft | 417 kts | 224° |
| 2026-04-23 23:59 | 37.99876 | -77.97172 | 31229 ft | 419 kts | 224° |
| 2026-04-23 23:59 | 37.97611 | -77.99580 | 31500 ft | 421 kts | 224° |
| 2026-04-24 00:00 | 37.95374 | -78.01955 | 31778 ft | 422 kts | 224° |
| 2026-04-24 00:00 | 37.93091 | -78.04376 | 32044 ft | 424 kts | 224° |
| 2026-04-24 00:00 | 37.90829 | -78.06773 | 32309 ft | 426 kts | 224° |
| 2026-04-24 00:00 | 37.88537 | -78.09200 | 32565 ft | 428 kts | 224° |
| 2026-04-24 00:01 | 37.86239 | -78.11630 | 32807 ft | 429 kts | 224° |
| 2026-04-24 00:01 | 37.83947 | -78.14053 | 33036 ft | 431 kts | 224° |
| 2026-04-24 00:01 | 37.81604 | -78.16528 | 33264 ft | 433 kts | 224° |
| 2026-04-24 00:01 | 37.79299 | -78.18960 | 33469 ft | 434 kts | 224° |
| 2026-04-24 00:02 | 37.76937 | -78.21448 | 33663 ft | 437 kts | 224° |
| 2026-04-24 00:02 | 37.74601 | -78.23912 | 33872 ft | 438 kts | 224° |
| 2026-04-24 00:02 | 37.72245 | -78.26392 | 34103 ft | 439 kts | 224° |
| 2026-04-24 00:02 | 37.69869 | -78.28887 | 34331 ft | 440 kts | 224° |
| 2026-04-24 00:03 | 37.67521 | -78.31355 | 34549 ft | 441 kts | 224° |
| 2026-04-24 00:03 | 37.65148 | -78.33849 | 34784 ft | 442 kts | 224° |
| 2026-04-24 00:03 | 37.62740 | -78.36372 | 34939 ft | 444 kts | 225° |
| 2026-04-24 00:03 | 37.60385 | -78.38839 | 34937 ft | 443 kts | 225° |
| 2026-04-24 00:04 | 37.55600 | -78.43852 | 34930 ft | 450 kts | 224° |
| 2026-04-24 00:04 | 37.50722 | -78.48949 | 34935 ft | 458 kts | 224° |
| 2026-04-24 00:05 | 37.45739 | -78.54140 | 34936 ft | 466 kts | 224° |
| 2026-04-24 00:05 | 37.40723 | -78.59324 | 34929 ft | 468 kts | 224° |
| 2026-04-24 00:06 | 37.35654 | -78.64542 | 34935 ft | 469 kts | 224° |
| 2026-04-24 00:06 | 37.30579 | -78.69764 | 34934 ft | 470 kts | 223° |
| 2026-04-24 00:07 | 37.25485 | -78.74998 | 34932 ft | 471 kts | 223° |
| 2026-04-24 00:07 | 37.20358 | -78.80255 | 34916 ft | 471 kts | 223° |
| 2026-04-24 00:08 | 37.15266 | -78.85466 | 34943 ft | 471 kts | 223° |
| 2026-04-24 00:08 | 37.10176 | -78.90664 | 34934 ft | 471 kts | 223° |
| 2026-04-24 00:09 | 37.05049 | -78.95891 | 34933 ft | 471 kts | 223° |
| 2026-04-24 00:09 | 36.99930 | -79.01105 | 34925 ft | 471 kts | 223° |
| 2026-04-24 00:10 | 36.94842 | -79.06277 | 34929 ft | 471 kts | 223° |
| 2026-04-24 00:10 | 36.89717 | -79.11531 | 34932 ft | 471 kts | 223° |
| 2026-04-24 00:11 | 36.84749 | -79.16631 | 34944 ft | 471 kts | 223° |
| 2026-04-24 00:11 | 36.79706 | -79.21794 | 34951 ft | 472 kts | 223° |
| 2026-04-24 00:12 | 36.74586 | -79.27026 | 34952 ft | 472 kts | 223° |
| 2026-04-24 00:12 | 36.69471 | -79.32244 | 34974 ft | 472 kts | 223° |
| 2026-04-24 00:13 | 36.64399 | -79.37408 | 34962 ft | 471 kts | 223° |
| 2026-04-24 00:13 | 36.61624 | -79.40227 | 34965 ft | 471 kts | 223° |
| 2026-04-24 00:14 | 36.60828 | -79.41035 | 34970 ft | 471 kts | 223° |
| 2026-04-24 00:15 | 36.58962 | -79.42930 | 34968 ft | 471 kts | 223° |
| 2026-04-24 00:15 | 36.56342 | -79.45588 | 34961 ft | 471 kts | 223° |
| 2026-04-24 00:16 | 36.53521 | -79.48448 | 34969 ft | 472 kts | 223° |
| 2026-04-24 00:16 | 36.48425 | -79.53610 | 34969 ft | 472 kts | 223° |
| 2026-04-24 00:17 | 36.43318 | -79.58768 | 34972 ft | 472 kts | 223° |
| 2026-04-24 00:17 | 36.38220 | -79.63915 | 34975 ft | 472 kts | 222° |
| 2026-04-24 00:18 | 36.33830 | -79.68337 | 34973 ft | 472 kts | 221° |
| 2026-04-24 00:18 | 36.28722 | -79.73471 | 34985 ft | 473 kts | 221° |
| 2026-04-24 00:19 | 36.23595 | -79.78616 | 34983 ft | 473 kts | 222° |
| 2026-04-24 00:19 | 36.18497 | -79.83728 | 34983 ft | 473 kts | 221° |
| 2026-04-24 00:20 | 36.13368 | -79.88856 | 34986 ft | 473 kts | 221° |
| 2026-04-24 00:20 | 36.08128 | -79.93894 | 34975 ft | 475 kts | 218° |
| 2026-04-24 00:21 | 36.02514 | -79.98249 | 34987 ft | 477 kts | 211° |
| 2026-04-24 00:21 | 35.96507 | -80.01819 | 34986 ft | 479 kts | 205° |
| 2026-04-24 00:22 | 35.90365 | -80.04963 | 34981 ft | 479 kts | 205° |
| 2026-04-24 00:22 | 35.84170 | -80.08131 | 34982 ft | 479 kts | 204° |
| 2026-04-24 00:23 | 35.77982 | -80.11295 | 35005 ft | 479 kts | 205° |
| 2026-04-24 00:23 | 35.71842 | -80.14433 | 34979 ft | 479 kts | 205° |
| 2026-04-24 00:24 | 35.65661 | -80.17590 | 34968 ft | 479 kts | 205° |
| 2026-04-24 00:24 | 35.59502 | -80.20731 | 35010 ft | 479 kts | 205° |
| 2026-04-24 00:25 | 35.53295 | -80.23891 | 35020 ft | 479 kts | 205° |
| 2026-04-24 00:25 | 35.47116 | -80.27031 | 35020 ft | 479 kts | 205° |
| 2026-04-24 00:26 | 35.40950 | -80.30159 | 35027 ft | 479 kts | 205° |
| 2026-04-24 00:26 | 35.34729 | -80.33309 | 35015 ft | 479 kts | 205° |
| 2026-04-24 00:27 | 35.28582 | -80.36417 | 34983 ft | 480 kts | 205° |
| 2026-04-24 00:27 | 35.22355 | -80.39560 | 34993 ft | 479 kts | 205° |
| 2026-04-24 00:28 | 35.18305 | -80.41602 | 34985 ft | 479 kts | 205° |
| 2026-04-24 00:28 | 35.15076 | -80.43227 | 34991 ft | 479 kts | 205° |
| 2026-04-24 00:29 | 35.09866 | -80.45838 | 35002 ft | 479 kts | 204° |
| 2026-04-24 00:29 | 35.03666 | -80.48954 | 35001 ft | 479 kts | 205° |
| 2026-04-24 00:30 | 34.97471 | -80.52064 | 34996 ft | 480 kts | 205° |
| 2026-04-24 00:30 | 34.91291 | -80.55200 | 35003 ft | 480 kts | 205° |
| 2026-04-24 00:31 | 34.87455 | -80.57110 | 35001 ft | 480 kts | 204° |
| 2026-04-24 00:31 | 34.81233 | -80.60201 | 34992 ft | 479 kts | 205° |
| 2026-04-24 00:32 | 34.75060 | -80.63271 | 34988 ft | 478 kts | 205° |
| 2026-04-24 00:32 | 34.69132 | -80.66219 | 34993 ft | 479 kts | 204° |
| 2026-04-24 00:33 | 34.62954 | -80.69289 | 35004 ft | 479 kts | 204° |
| 2026-04-24 00:33 | 34.56756 | -80.72363 | 34984 ft | 479 kts | 204° |
| 2026-04-24 00:34 | 34.50530 | -80.75447 | 34991 ft | 480 kts | 204° |
| 2026-04-24 00:34 | 34.44325 | -80.78516 | 34990 ft | 480 kts | 204° |
| 2026-04-24 00:35 | 34.38108 | -80.81586 | 34978 ft | 480 kts | 204° |
| 2026-04-24 00:35 | 34.31936 | -80.84628 | 34991 ft | 479 kts | 204° |
| 2026-04-24 00:36 | 34.25724 | -80.87685 | 34985 ft | 479 kts | 204° |
| 2026-04-24 00:36 | 34.19540 | -80.90723 | 34993 ft | 479 kts | 204° |
| 2026-04-24 00:37 | 34.13313 | -80.93777 | 34992 ft | 480 kts | 204° |
| 2026-04-24 00:37 | 34.07091 | -80.96832 | 34992 ft | 480 kts | 204° |
| 2026-04-24 00:38 | 34.00892 | -80.99844 | 34989 ft | 479 kts | 204° |
| 2026-04-24 00:38 | 33.94678 | -81.02868 | 35003 ft | 479 kts | 204° |
| 2026-04-24 00:39 | 33.88437 | -81.05909 | 34994 ft | 478 kts | 204° |
| 2026-04-24 00:39 | 33.82225 | -81.08933 | 34999 ft | 479 kts | 204° |
| 2026-04-24 00:40 | 33.75991 | -81.11961 | 35000 ft | 479 kts | 204° |
| 2026-04-24 00:40 | 33.69801 | -81.14964 | 34981 ft | 479 kts | 204° |
| 2026-04-24 00:41 | 33.63593 | -81.17972 | 34988 ft | 478 kts | 204° |
| 2026-04-24 00:41 | 33.57369 | -81.20982 | 34987 ft | 478 kts | 204° |
| 2026-04-24 00:42 | 33.51170 | -81.23977 | 34999 ft | 477 kts | 204° |
| 2026-04-24 00:42 | 33.44939 | -81.26980 | 35000 ft | 478 kts | 204° |
| 2026-04-24 00:43 | 33.38738 | -81.29967 | 34993 ft | 478 kts | 203° |
| 2026-04-24 00:43 | 33.32523 | -81.32955 | 35018 ft | 478 kts | 203° |
| 2026-04-24 00:44 | 33.26341 | -81.35921 | 35020 ft | 477 kts | 203° |
| 2026-04-24 00:44 | 33.20181 | -81.38872 | 35024 ft | 476 kts | 203° |
| 2026-04-24 00:45 | 33.13970 | -81.41843 | 35021 ft | 477 kts | 203° |
| 2026-04-24 00:45 | 33.07766 | -81.44807 | 35008 ft | 477 kts | 204° |
| 2026-04-24 00:46 | 33.01583 | -81.47759 | 35005 ft | 477 kts | 203° |
| 2026-04-24 00:46 | 32.95414 | -81.50697 | 34992 ft | 477 kts | 203° |
| 2026-04-24 00:47 | 32.89206 | -81.53649 | 34998 ft | 477 kts | 203° |
| 2026-04-24 00:47 | 32.82999 | -81.56596 | 35016 ft | 476 kts | 203° |
| 2026-04-24 00:48 | 32.76811 | -81.59530 | 35021 ft | 476 kts | 203° |
| 2026-04-24 00:48 | 32.70637 | -81.62452 | 35039 ft | 476 kts | 203° |
| 2026-04-24 00:49 | 32.64459 | -81.65375 | 35039 ft | 476 kts | 202° |
| 2026-04-24 00:49 | 32.58241 | -81.68310 | 35036 ft | 476 kts | 202° |
| 2026-04-24 00:50 | 32.52056 | -81.71225 | 35039 ft | 476 kts | 202° |
| 2026-04-24 00:50 | 32.45895 | -81.74124 | 35020 ft | 476 kts | 202° |
| 2026-04-24 00:51 | 32.39658 | -81.77056 | 35030 ft | 476 kts | 202° |
| 2026-04-24 00:51 | 32.33468 | -81.79961 | 35028 ft | 476 kts | 202° |
| 2026-04-24 00:52 | 32.27284 | -81.82860 | 35034 ft | 476 kts | 202° |
| 2026-04-24 00:52 | 32.21053 | -81.85774 | 35029 ft | 477 kts | 202° |
| 2026-04-24 00:53 | 32.14872 | -81.88662 | 35043 ft | 477 kts | 202° |
| 2026-04-24 00:53 | 32.08644 | -81.91567 | 35031 ft | 476 kts | 202° |
| 2026-04-24 00:54 | 32.02476 | -81.94444 | 35037 ft | 476 kts | 202° |
| 2026-04-24 00:54 | 31.96299 | -81.97319 | 35020 ft | 476 kts | 202° |
| 2026-04-24 00:55 | 31.90072 | -82.00193 | 35024 ft | 475 kts | 201° |
| 2026-04-24 00:55 | 31.83746 | -82.02500 | 35020 ft | 476 kts | 194° |
| 2026-04-24 00:56 | 31.77224 | -82.04189 | 35021 ft | 476 kts | 192° |
| 2026-04-24 00:56 | 31.70696 | -82.05831 | 35022 ft | 477 kts | 193° |
| 2026-04-24 00:57 | 31.64213 | -82.07465 | 35054 ft | 476 kts | 192° |
| 2026-04-24 00:58 | 31.54479 | -82.09917 | 35043 ft | 475 kts | 192° |
| 2026-04-24 00:58 | 31.47971 | -82.11553 | 35039 ft | 475 kts | 193° |
| 2026-04-24 00:59 | 31.41426 | -82.13198 | 35026 ft | 475 kts | 192° |
| 2026-04-24 00:59 | 31.34961 | -82.14821 | 35017 ft | 476 kts | 192° |
| 2026-04-24 01:00 | 31.28413 | -82.16460 | 35015 ft | 475 kts | 192° |
| 2026-04-24 01:00 | 31.21939 | -82.18079 | 35028 ft | 475 kts | 192° |
| 2026-04-24 01:01 | 31.15445 | -82.19702 | 35023 ft | 474 kts | 192° |
| 2026-04-24 01:01 | 31.08952 | -82.21323 | 35025 ft | 475 kts | 192° |
| 2026-04-24 01:02 | 31.02484 | -82.22934 | 35016 ft | 474 kts | 192° |
| 2026-04-24 01:02 | 30.95983 | -82.24552 | 35015 ft | 475 kts | 192° |
| 2026-04-24 01:03 | 30.89486 | -82.26166 | 35011 ft | 475 kts | 192° |
| 2026-04-24 01:03 | 30.82959 | -82.27785 | 35016 ft | 475 kts | 193° |
| 2026-04-24 01:04 | 30.76487 | -82.29391 | 35015 ft | 475 kts | 192° |
| 2026-04-24 01:04 | 30.69976 | -82.31001 | 35020 ft | 475 kts | 192° |
| 2026-04-24 01:05 | 30.63374 | -82.32196 | 35023 ft | 475 kts | 187° |
| 2026-04-24 01:05 | 30.56789 | -82.33015 | 35021 ft | 475 kts | 187° |
| 2026-04-24 01:06 | 30.50271 | -82.33821 | 35030 ft | 473 kts | 187° |
| 2026-04-24 01:06 | 30.43686 | -82.34644 | 35034 ft | 473 kts | 187° |
| 2026-04-24 01:07 | 30.37114 | -82.35469 | 35027 ft | 475 kts | 187° |
| 2026-04-24 01:07 | 30.30483 | -82.36292 | 35026 ft | 475 kts | 187° |
| 2026-04-24 01:08 | 30.23881 | -82.37111 | 35030 ft | 474 kts | 187° |
| 2026-04-24 01:08 | 30.17251 | -82.37746 | 35035 ft | 473 kts | 183° |
| 2026-04-24 01:09 | 30.10650 | -82.37606 | 35038 ft | 473 kts | 178° |
| 2026-04-24 01:09 | 30.04065 | -82.37233 | 34833 ft | 466 kts | 178° |
| 2026-04-24 01:09 | 30.00831 | -82.37046 | 34467 ft | 453 kts | 178° |
| 2026-04-24 01:10 | 29.97672 | -82.36867 | 33699 ft | 448 kts | 179° |
| 2026-04-24 01:10 | 29.94589 | -82.36690 | 32951 ft | 443 kts | 179° |
| 2026-04-24 01:10 | 29.91525 | -82.36521 | 32213 ft | 438 kts | 179° |
| 2026-04-24 01:10 | 29.88469 | -82.36359 | 31433 ft | 435 kts | 179° |
| 2026-04-24 01:11 | 29.85450 | -82.36192 | 30651 ft | 431 kts | 179° |
| 2026-04-24 01:11 | 29.82441 | -82.36028 | 29949 ft | 425 kts | 179° |
| 2026-04-24 01:11 | 29.79494 | -82.35858 | 29204 ft | 421 kts | 179° |
| 2026-04-24 01:11 | 29.76552 | -82.35697 | 28449 ft | 416 kts | 179° |
| 2026-04-24 01:12 | 29.73632 | -82.35525 | 27722 ft | 411 kts | 179° |
| 2026-04-24 01:12 | 29.70827 | -82.35325 | 27010 ft | 406 kts | 179° |
| 2026-04-24 01:12 | 29.67958 | -82.35120 | 26382 ft | 400 kts | 178° |
| 2026-04-24 01:12 | 29.65186 | -82.34948 | 26096 ft | 399 kts | 179° |
| 2026-04-24 01:13 | 29.62416 | -82.34790 | 26076 ft | 399 kts | 179° |
| 2026-04-24 01:13 | 29.59600 | -82.34704 | 26074 ft | 405 kts | 181° |
| 2026-04-24 01:13 | 29.56791 | -82.34605 | 26073 ft | 401 kts | 181° |
| 2026-04-24 01:13 | 29.53976 | -82.34460 | 26076 ft | 401 kts | 180° |
| 2026-04-24 01:14 | 29.51156 | -82.34301 | 26073 ft | 399 kts | 181° |
| 2026-04-24 01:14 | 29.48383 | -82.34146 | 26069 ft | 399 kts | 180° |
| 2026-04-24 01:14 | 29.45560 | -82.33994 | 26065 ft | 400 kts | 180° |
| 2026-04-24 01:14 | 29.42766 | -82.33841 | 26072 ft | 400 kts | 180° |
| 2026-04-24 01:15 | 29.39968 | -82.33653 | 26063 ft | 401 kts | 178° |
| 2026-04-24 01:15 | 29.37183 | -82.33334 | 26059 ft | 401 kts | 177° |
| 2026-04-24 01:15 | 29.34364 | -82.32990 | 26055 ft | 401 kts | 178° |
| 2026-04-24 01:15 | 29.31598 | -82.32661 | 26055 ft | 401 kts | 177° |
| 2026-04-24 01:16 | 29.28784 | -82.32324 | 26059 ft | 402 kts | 178° |
| 2026-04-24 01:16 | 29.25978 | -82.31986 | 26055 ft | 400 kts | 178° |
| 2026-04-24 01:16 | 29.23211 | -82.31654 | 26058 ft | 399 kts | 178° |
| 2026-04-24 01:16 | 29.20407 | -82.31323 | 26063 ft | 399 kts | 178° |
| 2026-04-24 01:17 | 29.17613 | -82.30992 | 26060 ft | 400 kts | 178° |
| 2026-04-24 01:17 | 29.14851 | -82.30662 | 26061 ft | 399 kts | 178° |
| 2026-04-24 01:17 | 29.12051 | -82.30328 | 26058 ft | 398 kts | 179° |
| 2026-04-24 01:17 | 29.09271 | -82.29995 | 26064 ft | 397 kts | 178° |
| 2026-04-24 01:18 | 29.06504 | -82.29670 | 26062 ft | 398 kts | 178° |
| 2026-04-24 01:18 | 29.03736 | -82.29340 | 26057 ft | 398 kts | 178° |
| 2026-04-24 01:18 | 29.00984 | -82.29011 | 26064 ft | 397 kts | 179° |
| 2026-04-24 01:18 | 28.98192 | -82.28678 | 26058 ft | 396 kts | 179° |
| 2026-04-24 01:19 | 28.95452 | -82.28354 | 26060 ft | 397 kts | 179° |
| 2026-04-24 01:19 | 28.92690 | -82.28029 | 26061 ft | 396 kts | 179° |
| 2026-04-24 01:19 | 28.89918 | -82.27702 | 26058 ft | 397 kts | 179° |
| 2026-04-24 01:19 | 28.87178 | -82.27376 | 26058 ft | 397 kts | 179° |
| 2026-04-24 01:20 | 28.84432 | -82.27053 | 26059 ft | 397 kts | 178° |
| 2026-04-24 01:20 | 28.81638 | -82.26722 | 26059 ft | 396 kts | 179° |
| 2026-04-24 01:20 | 28.78897 | -82.26394 | 26055 ft | 396 kts | 179° |
| 2026-04-24 01:20 | 28.76156 | -82.26070 | 26057 ft | 396 kts | 179° |
| 2026-04-24 01:21 | 28.73384 | -82.25810 | 26058 ft | 394 kts | 183° |
| 2026-04-24 01:21 | 28.70619 | -82.25741 | 26057 ft | 392 kts | 184° |
| 2026-04-24 01:21 | 28.67857 | -82.25704 | 26059 ft | 392 kts | 184° |
| 2026-04-24 01:21 | 28.65128 | -82.25669 | 26059 ft | 392 kts | 184° |
| 2026-04-24 01:22 | 28.62399 | -82.25621 | 26058 ft | 392 kts | 184° |
| 2026-04-24 01:22 | 28.59643 | -82.25558 | 26056 ft | 391 kts | 184° |
| 2026-04-24 01:22 | 28.56927 | -82.25499 | 26057 ft | 393 kts | 184° |
| 2026-04-24 01:22 | 28.54183 | -82.25437 | 26013 ft | 386 kts | 184° |
| 2026-04-24 01:23 | 28.51505 | -82.25381 | 25825 ft | 375 kts | 184° |
| 2026-04-24 01:23 | 28.48918 | -82.25353 | 25528 ft | 367 kts | 185° |
| 2026-04-24 01:23 | 28.46398 | -82.25331 | 25080 ft | 363 kts | 185° |
| 2026-04-24 01:23 | 28.43874 | -82.25309 | 24598 ft | 361 kts | 184° |
| 2026-04-24 01:24 | 28.41365 | -82.25285 | 23988 ft | 356 kts | 184° |
| 2026-04-24 01:24 | 28.38884 | -82.25259 | 23165 ft | 354 kts | 183° |
| 2026-04-24 01:24 | 28.36451 | -82.25424 | 22323 ft | 347 kts | 198° |
| 2026-04-24 01:24 | 28.34330 | -82.26595 | 21476 ft | 336 kts | 221° |
| 2026-04-24 01:25 | 28.32595 | -82.28339 | 20744 ft | 330 kts | 226° |
| 2026-04-24 01:25 | 28.30941 | -82.30128 | 20140 ft | 321 kts | 229° |
| 2026-04-24 01:25 | 28.29766 | -82.32244 | 19488 ft | 311 kts | 256° |
| 2026-04-24 01:25 | 28.29485 | -82.34647 | 18919 ft | 308 kts | 266° |
| 2026-04-24 01:26 | 28.29293 | -82.37064 | 18526 ft | 305 kts | 264° |
| 2026-04-24 01:26 | 28.29051 | -82.39421 | 17955 ft | 300 kts | 264° |
| 2026-04-24 01:26 | 28.28678 | -82.41762 | 17182 ft | 301 kts | 253° |
| 2026-04-24 01:26 | 28.27784 | -82.43910 | 16439 ft | 300 kts | 238° |
| 2026-04-24 01:27 | 28.26580 | -82.45824 | 15723 ft | 299 kts | 237° |
| 2026-04-24 01:27 | 28.25502 | -82.47829 | 15002 ft | 296 kts | 241° |
| 2026-04-24 01:27 | 28.24531 | -82.49862 | 14298 ft | 293 kts | 250° |
| 2026-04-24 01:27 | 28.24177 | -82.52110 | 13563 ft | 289 kts | 276° |
| 2026-04-24 01:28 | 28.24698 | -82.54273 | 12888 ft | 285 kts | 295° |
| 2026-04-24 01:28 | 28.25783 | -82.56120 | 12151 ft | 283 kts | 318° |
| 2026-04-24 01:28 | 28.27385 | -82.57463 | 11460 ft | 280 kts | 327° |
| 2026-04-24 01:28 | 28.29038 | -82.58619 | 10774 ft | 278 kts | 329° |
| 2026-04-24 01:29 | 28.30683 | -82.59734 | 10104 ft | 276 kts | 329° |
| 2026-04-24 01:29 | 28.32328 | -82.60854 | 9473 ft | 272 kts | 329° |
| 2026-04-24 01:29 | 28.33940 | -82.61958 | 8788 ft | 271 kts | 329° |
| 2026-04-24 01:29 | 28.35553 | -82.63130 | 8053 ft | 272 kts | 321° |
| 2026-04-24 01:30 | 28.36631 | -82.64887 | 7444 ft | 277 kts | 285° |
| 2026-04-24 01:30 | 28.36650 | -82.67020 | 7079 ft | 273 kts | 253° |
| 2026-04-24 01:30 | 28.35805 | -82.68908 | 6714 ft | 269 kts | 227° |
| 2026-04-24 01:30 | 28.34331 | -82.70194 | 6348 ft | 265 kts | 201° |
| 2026-04-24 01:31 | 28.32570 | -82.70615 | 6107 ft | 248 kts | 175° |
| 2026-04-24 01:31 | 28.30945 | -82.70201 | 5775 ft | 233 kts | 152° |
| 2026-04-24 01:31 | 28.29669 | -82.69152 | 5349 ft | 224 kts | 134° |
| 2026-04-24 01:31 | 28.28582 | -82.67915 | 5147 ft | 214 kts | 133° |
| 2026-04-24 01:32 | 28.27540 | -82.66726 | 5014 ft | 205 kts | 133° |
| 2026-04-24 01:32 | 28.26557 | -82.65616 | 4968 ft | 191 kts | 134° |
| 2026-04-24 01:32 | 28.25656 | -82.64606 | 5033 ft | 177 kts | 134° |
| 2026-04-24 01:32 | 28.24773 | -82.63622 | 5009 ft | 175 kts | 134° |
| 2026-04-24 01:33 | 28.23909 | -82.62660 | 4998 ft | 175 kts | 134° |
| 2026-04-24 01:33 | 28.23024 | -82.61679 | 5003 ft | 175 kts | 134° |
| 2026-04-24 01:33 | 28.22145 | -82.60709 | 5004 ft | 175 kts | 134° |
| 2026-04-24 01:33 | 28.21266 | -82.59740 | 5039 ft | 173 kts | 134° |
| 2026-04-24 01:34 | 28.20410 | -82.58797 | 4837 ft | 171 kts | 134° |
| 2026-04-24 01:34 | 28.19545 | -82.57841 | 4480 ft | 171 kts | 134° |
| 2026-04-24 01:34 | 28.18708 | -82.56916 | 4242 ft | 163 kts | 134° |
| 2026-04-24 01:34 | 28.17890 | -82.56015 | 3936 ft | 158 kts | 134° |
| 2026-04-24 01:35 | 28.17116 | -82.55163 | 3495 ft | 157 kts | 134° |
| 2026-04-24 01:35 | 28.16330 | -82.54295 | 3030 ft | 156 kts | 134° |
| 2026-04-24 01:35 | 28.15423 | -82.53655 | 2577 ft | 159 kts | 161° |
| 2026-04-24 01:35 | 28.14322 | -82.53582 | 2164 ft | 159 kts | 176° |
| 2026-04-24 01:36 | 28.13234 | -82.53629 | 1839 ft | 152 kts | 178° |
| 2026-04-24 01:36 | 28.12223 | -82.53703 | 1652 ft | 136 kts | 178° |
| 2026-04-24 01:36 | 28.11295 | -82.53784 | 1441 ft | 133 kts | 179° |
| 2026-04-24 01:36 | 28.10385 | -82.53848 | 1273 ft | 128 kts | 178° |
| 2026-04-24 01:37 | 28.09487 | -82.53876 | 1122 ft | 127 kts | 175° |
| 2026-04-24 01:37 | 28.08604 | -82.53870 | 982 ft | 132 kts | 176° |
| 2026-04-24 01:37 | 28.07647 | -82.53879 | 959 ft | 142 kts | 178° |
| 2026-04-24 01:37 | 28.06673 | -82.53933 | 1019 ft | 145 kts | 180° |
| 2026-04-24 01:38 | 28.05699 | -82.53991 | 1025 ft | 134 kts | 179° |
| 2026-04-24 01:38 | 28.04797 | -82.54030 | 866 ft | 128 kts | 177° |
| 2026-04-24 01:38 | 28.03890 | -82.54042 | 677 ft | 130 kts | 177° |
| 2026-04-24 01:38 | 28.02970 | -82.54022 | 486 ft | 131 kts | 177° |
| 2026-04-24 01:39 | 28.02046 | -82.54044 | 361 ft | 131 kts | 181° |
| 2026-04-24 01:39 | 28.01141 | -82.54080 | 248 ft | 130 kts | 180° |
| 2026-04-24 01:39 | 28.00251 | -82.54092 | 130 ft | 130 kts | 181° |
| 2026-04-24 01:39 | 27.99361 | -82.54136 | 46 ft | 124 kts | 183° |
| 2026-04-24 01:40 | 27.98755 | -82.54163 | 19 ft | 44 kts | 175° |
| 2026-04-24 01:40 | 27.98517 | -82.54153 | 19 ft | 31 kts | 182° |
| 2026-04-24 01:40 | 27.98308 | -82.54167 | 19 ft | 29 kts | 184° |
| 2026-04-24 01:40 | 27.98117 | -82.54175 | 18 ft | 28 kts | 181° |
| 2026-04-24 01:41 | 27.97922 | -82.54184 | 18 ft | 26 kts | 180° |
| 2026-04-24 01:41 | 27.97764 | -82.54167 | 17 ft | 20 kts | 159° |
| 2026-04-24 01:41 | 27.97712 | -82.54113 | 17 ft | 8 kts | 97° |
| 2026-04-24 01:41 | 27.97739 | -82.54067 | 18 ft | 7 kts | 24° |
| 2026-04-24 01:42 | 27.97795 | -82.54060 | 18 ft | 8 kts | 0° |
| 2026-04-24 01:42 | 27.97847 | -82.54025 | 18 ft | 9 kts | 73° |
| 2026-04-24 01:42 | 27.97816 | -82.53954 | 18 ft | 10 kts | 119° |
| 2026-04-24 01:42 | 27.97826 | -82.53866 | 18 ft | 11 kts | 84° |
| 2026-04-24 01:43 | 27.97828 | -82.53806 | 19 ft | 0 kts | 91° |
| 2026-04-24 01:43 | 27.97828 | -82.53805 | 19 ft | 0 kts | 86° |
| 2026-04-24 01:43 | 27.97828 | -82.53804 | 19 ft | 0 kts | 85° |
| 2026-04-24 01:43 | 27.97828 | -82.53803 | 19 ft | 1 kts | 84° |
| 2026-04-24 01:44 | 27.97826 | -82.53783 | 19 ft | 3 kts | 105° |
| 2026-04-24 01:44 | 27.97813 | -82.53777 | 19 ft | 3 kts | 202° |
| 2026-04-24 01:44 | 27.97796 | -82.53793 | 19 ft | 1 kts | 201° |
| 2026-04-24 01:44 | 27.97779 | -82.53799 | 18 ft | 1 kts | 204° |
| 2026-04-24 01:45 | 27.97768 | -82.53805 | 18 ft | 1 kts | 205° |
| 2026-04-24 01:45 | 27.97762 | -82.53808 | 18 ft | 0 kts | 203° |